Est de San Geraldo, Puerto Rico
Current Conditions -  °F | °C
As of 2:56 AM on Thursday 27 Nov 2014 (Local Time) from TJSJ Reporting Station
Scattered Clouds Scattered Clouds  
Wind Chill: 76°   Ceiling: Unl
Heat Index: 76°   Visibility: 10mi
Dew Point: 73°   Wind: 3mph
Humidity: 91%   Direction: 120°ESE
Pressure: 29.97"   Gusts: NA
Location:  18.3754°N, 66.0577°W
Report Text: TJSJ 270656Z 12003KT 10SM FEW029 SCT046 SCT060 24/23 A2997 RMK AO2 SLP147 T02440228
Loading
Personal Weather Stations






























Interactive Weather Map New forecast layout! Learn more

10-Day Weather Forecast

Advertisements
Track Severe Weather on mobile